Time;durP1;ratioP1;P1;durP2;ratioP2;P2;SDS_P1;SDS_P2;PMS_P1;PMS_P2;Temp;Humidity;BMP_temperature;BMP_pressure;BME280_temperature;BME280_humidity;BME280_pressure;Samples;Min_cycle;Max_cycle;Signal;HPM_P1;HPM_P2
2022/03/06 00:01:53;;;;;;;40.75;21.95;;;-2.60;99.90;;;;;;5031120;28;20132;-47
2022/03/06 00:04:18;;;;;;;42.65;22.05;;;-2.50;99.90;;;;;;5031569;28;20056;-49
2022/03/06 00:06:44;;;;;;;32.85;20.33;;;-2.50;99.90;;;;;;5031295;28;20041;-48
2022/03/06 00:09:10;;;;;;;40.80;21.30;;;-2.50;99.90;;;;;;5031570;28;20048;-46
2022/03/06 00:11:36;;;;;;;33.58;20.73;;;-2.40;99.90;;;;;;5031457;28;20041;-45
2022/03/06 00:14:01;;;;;;;38.95;22.20;;;-2.30;99.90;;;;;;5031360;28;20073;-48
2022/03/06 00:16:27;;;;;;;38.42;22.08;;;-2.20;99.90;;;;;;5031132;28;20147;-45
2022/03/06 00:18:53;;;;;;;37.22;21.08;;;-2.10;99.90;;;;;;5031002;28;20047;-47
2022/03/06 00:21:19;;;;;;;36.70;21.73;;;-2.10;99.90;;;;;;5031455;28;20116;-46
2022/03/06 00:23:45;;;;;;;37.90;22.20;;;-1.90;99.90;;;;;;5031199;28;20049;-45
2022/03/06 00:26:10;;;;;;;39.67;22.10;;;-1.80;99.90;;;;;;5031400;28;20122;-47
2022/03/06 00:28:36;;;;;;;36.40;21.60;;;-1.60;99.90;;;;;;5031626;28;20049;-45
2022/03/06 00:31:02;;;;;;;38.20;21.27;;;-1.70;99.90;;;;;;5031132;28;20045;-45
2022/03/06 00:33:28;;;;;;;38.75;21.83;;;-1.50;99.90;;;;;;5030862;28;20045;-47
2022/03/06 00:35:54;;;;;;;38.25;21.92;;;-1.40;99.90;;;;;;5030610;28;20029;-45
2022/03/06 00:38:19;;;;;;;36.17;20.73;;;-1.30;99.90;;;;;;5031118;28;20527;-47
2022/03/06 00:40:45;;;;;;;31.60;19.48;;;-1.40;99.90;;;;;;5030831;28;20045;-46
2022/03/06 00:43:11;;;;;;;33.13;19.42;;;-1.30;99.90;;;;;;5030734;28;20049;-46
2022/03/06 00:45:37;;;;;;;36.70;19.98;;;-1.20;99.90;;;;;;5031000;28;20106;-46
2022/03/06 00:48:03;;;;;;;33.45;19.75;;;-1.20;99.90;;;;;;5030719;28;20107;-45
2022/03/06 00:50:29;;;;;;;33.05;18.02;;;-1.20;99.90;;;;;;5031117;28;20042;-50
2022/03/06 00:52:56;;;;;;;32.83;19.98;;;-1.10;99.90;;;;;;5030786;28;20459;-46
2022/03/06 00:55:22;;;;;;;31.17;19.23;;;-1.00;99.90;;;;;;5030978;28;20053;-46
2022/03/06 00:57:48;;;;;;;32.17;18.40;;;-1.10;99.90;;;;;;5030597;28;20096;-46
2022/03/06 01:00:14;;;;;;;31.50;18.40;;;-1.00;99.90;;;;;;5029766;28;20037;-44
2022/03/06 01:02:39;;;;;;;31.70;19.55;;;-1.00;99.90;;;;;;5030933;28;20387;-45
2022/03/06 01:05:05;;;;;;;30.02;17.52;;;-0.90;99.90;;;;;;5030510;28;20045;-46
2022/03/06 01:07:31;;;;;;;28.98;16.55;;;-1.00;99.90;;;;;;5030677;28;20041;-45
2022/03/06 01:09:56;;;;;;;27.38;16.83;;;-0.80;99.90;;;;;;5030457;28;20049;-47
2022/03/06 01:12:22;;;;;;;24.48;16.38;;;-0.90;99.90;;;;;;5030776;28;20064;-45
2022/03/06 01:14:49;;;;;;;23.45;14.50;;;-0.80;99.90;;;;;;5030439;28;20087;-45
2022/03/06 01:17:15;;;;;;;26.58;15.85;;;-0.80;99.90;;;;;;5029464;28;20064;-46
2022/03/06 01:19:41;;;;;;;28.67;15.65;;;-0.80;99.90;;;;;;5030242;28;20045;-46
2022/03/06 01:22:07;;;;;;;25.27;15.48;;;-0.70;99.90;;;;;;5030222;28;20095;-46
2022/03/06 01:24:32;;;;;;;24.98;14.50;;;-0.80;99.90;;;;;;5030235;28;20041;-46
2022/03/06 01:26:58;;;;;;;24.38;14.65;;;-0.60;99.90;;;;;;5030523;28;20053;-47
2022/03/06 01:29:24;;;;;;;21.92;13.45;;;-0.60;99.90;;;;;;5030313;28;20037;-45
2022/03/06 01:31:50;;;;;;;23.27;13.70;;;-0.70;99.90;;;;;;5030074;28;20045;-44
2022/03/06 01:34:16;;;;;;;22.23;13.82;;;-0.70;99.90;;;;;;5030266;28;20072;-46
2022/03/06 01:36:41;;;;;;;23.55;13.90;;;-0.70;99.90;;;;;;5030300;28;20049;-45
2022/03/06 01:39:07;;;;;;;22.77;13.65;;;-0.60;99.90;;;;;;5030205;28;20128;-45
2022/03/06 01:41:34;;;;;;;28.60;12.95;;;-0.60;99.90;;;;;;5030477;28;20041;-48
2022/03/06 01:44:00;;;;;;;21.13;12.70;;;0.20;99.90;;;;;;5030525;28;20041;-45
2022/03/06 01:46:26;;;;;;;20.55;11.93;;;-0.60;99.90;;;;;;5033431;28;20064;-46
2022/03/06 01:48:51;;;;;;;17.45;12.27;;;-0.60;99.90;;;;;;5034039;28;20049;-47
2022/03/06 01:51:17;;;;;;;25.67;12.18;;;-0.60;99.90;;;;;;5034265;28;20041;-45
2022/03/06 01:53:43;;;;;;;17.63;11.35;;;-0.50;99.90;;;;;;5034001;28;20368;-45
2022/03/06 01:56:11;;;;;;;17.25;11.18;;;-0.50;99.90;;;;;;5031828;28;20053;-45
2022/03/06 01:58:37;;;;;;;21.08;11.63;;;-0.40;99.90;;;;;;5033759;28;20049;-45
2022/03/06 02:01:03;;;;;;;19.90;11.90;;;-0.40;99.90;;;;;;5048642;28;20041;-46
2022/03/06 02:03:29;;;;;;;18.35;12.07;;;-0.40;99.90;;;;;;5033475;28;20064;-47
2022/03/06 02:05:54;;;;;;;16.90;10.88;;;-0.20;99.90;;;;;;5032025;28;20045;-45
2022/03/06 02:08:20;;;;;;;17.70;10.93;;;-0.40;99.90;;;;;;5033804;28;20041;-45
2022/03/06 02:10:49;;;;;;;15.48;10.50;;;-0.30;99.90;;;;;;5033636;28;20041;-49
2022/03/06 02:13:15;;;;;;;17.98;10.18;;;-0.30;99.90;;;;;;5033170;28;20049;-45
2022/03/06 02:15:41;;;;;;;18.92;11.30;;;-0.30;99.90;;;;;;5033291;28;20470;-46
2022/03/06 02:18:07;;;;;;;15.70;9.70;;;-0.40;99.90;;;;;;5033118;28;20388;-44
2022/03/06 02:20:33;;;;;;;18.60;10.60;;;-0.30;99.90;;;;;;5033298;28;20053;-47
2022/03/06 02:22:59;;;;;;;17.50;10.02;;;-0.20;99.90;;;;;;5031731;28;20118;-46
2022/03/06 02:25:31;;;;;;;18.60;10.27;;;-0.20;99.90;;;;;;5032995;28;20479;-46
2022/03/06 02:27:59;;;;;;;17.48;10.02;;;-0.30;99.90;;;;;;5033011;28;20045;-44
2022/03/06 02:30:28;;;;;;;15.57;9.77;;;-0.20;99.90;;;;;;5032646;28;20127;-46
2022/03/06 02:32:57;;;;;;;16.45;9.93;;;-0.20;99.90;;;;;;5032735;28;20084;-45
2022/03/06 02:35:23;;;;;;;19.35;11.63;;;-0.20;99.90;;;;;;5031421;28;20709;-48
2022/03/06 02:37:48;;;;;;;13.10;9.23;;;-0.40;99.90;;;;;;5032831;28;20053;-46
2022/03/06 02:40:15;;;;;;;14.82;9.63;;;-0.20;99.90;;;;;;5033016;28;20045;-47
2022/03/06 02:42:44;;;;;;;16.17;10.70;;;-0.20;99.90;;;;;;5032991;28;20046;-47
2022/03/06 02:45:27;;;;;;;12.63;9.27;;;-0.20;99.90;;;;;;5032977;28;20434;-46
2022/03/06 02:47:55;;;;;;;15.32;9.32;;;-0.20;99.90;;;;;;5033205;28;20038;-47
2022/03/06 02:50:29;;;;;;;17.02;9.43;;;-0.10;99.90;;;;;;5032668;28;20085;-46
2022/03/06 02:52:57;;;;;;;16.98;9.77;;;-0.20;99.90;;;;;;5033303;28;20052;-47
2022/03/06 02:55:23;;;;;;;11.13;8.93;;;0.00;99.90;;;;;;5032865;28;20049;-45
2022/03/06 02:57:50;;;;;;;14.38;9.77;;;-0.10;99.90;;;;;;5032298;28;20049;-47
2022/03/06 03:00:18;;;;;;;14.20;9.00;;;-0.10;99.90;;;;;;5032697;28;20041;-48
2022/03/06 03:02:44;;;;;;;13.23;8.82;;;-0.10;99.90;;;;;;5033067;28;20049;-47
2022/03/06 03:05:11;;;;;;;16.15;10.65;;;-0.10;99.90;;;;;;5032855;28;20081;-46
2022/03/06 03:07:41;;;;;;;13.73;9.10;;;-0.20;99.90;;;;;;5032636;28;20045;-45
2022/03/06 03:10:09;;;;;;;15.05;9.65;;;-0.30;99.90;;;;;;5032402;28;20131;-45
2022/03/06 03:12:35;;;;;;;16.02;8.50;;;-0.30;99.90;;;;;;5032188;28;20107;-48
2022/03/06 03:15:01;;;;;;;17.27;9.38;;;-0.20;99.90;;;;;;5032773;28;20817;-46
2022/03/06 03:17:27;;;;;;;14.70;9.63;;;-0.30;99.90;;;;;;5032008;28;20058;-48
2022/03/06 03:19:52;;;;;;;17.77;9.48;;;-0.40;99.90;;;;;;5032445;28;20064;-46
2022/03/06 03:22:18;;;;;;;14.30;9.60;;;-0.50;99.90;;;;;;5032233;28;20077;-47
2022/03/06 03:24:44;;;;;;;13.40;9.77;;;-1.80;99.90;;;;;;5032444;28;20057;-48
2022/03/06 03:27:09;;;;;;;17.08;10.05;;;-0.60;99.90;;;;;;5032344;28;20045;-45
2022/03/06 03:29:35;;;;;;;17.05;10.85;;;-0.70;99.90;;;;;;5032048;28;20034;-45
2022/03/06 03:32:01;;;;;;;19.90;11.60;;;-0.60;99.90;;;;;;5030767;28;20045;-47
2022/03/06 03:34:26;;;;;;;15.80;9.82;;;-0.70;99.90;;;;;;5032133;28;20049;-46
2022/03/06 03:36:52;;;;;;;15.48;10.57;;;-0.80;99.90;;;;;;5032362;28;20060;-49
2022/03/06 03:39:18;;;;;;;16.90;9.55;;;-0.80;99.90;;;;;;5030548;28;20049;-49
2022/03/06 03:41:44;;;;;;;19.20;11.35;;;2.50;99.90;;;;;;5031865;28;20037;-46
2022/03/06 03:44:09;;;;;;;16.48;10.18;;;-0.90;99.90;;;;;;5032311;28;20052;-46
2022/03/06 03:46:35;;;;;;;17.13;10.40;;;-0.90;99.90;;;;;;5032109;28;20041;-48
2022/03/06 03:49:01;;;;;;;15.30;9.52;;;-1.10;99.90;;;;;;5032252;28;20155;-45
2022/03/06 03:51:26;;;;;;;19.55;9.45;;;-1.00;99.90;;;;;;5031853;28;20172;-45
2022/03/06 03:53:52;;;;;;;15.40;9.88;;;-1.00;99.90;;;;;;5031958;28;20087;-45
2022/03/06 03:56:18;;;;;;;12.50;8.07;;;-1.10;99.90;;;;;;5030330;28;20037;-47
2022/03/06 03:58:43;;;;;;;13.98;8.45;;;-1.20;99.90;;;;;;5031787;28;20479;-47
2022/03/06 04:01:09;;;;;;;11.90;8.40;;;-1.30;99.90;;;;;;5030558;28;20125;-46
2022/03/06 04:03:35;;;;;;;14.35;8.55;;;-1.30;99.90;;;;;;5031515;28;20072;-46
2022/03/06 04:06:00;;;;;;;13.25;7.15;;;-1.40;99.90;;;;;;5031452;28;20048;-46
2022/03/06 04:08:26;;;;;;;15.57;8.43;;;-1.40;99.90;;;;;;5030510;28;20103;-48
2022/03/06 04:10:52;;;;;;;15.93;8.27;;;-1.40;99.90;;;;;;5031525;28;20045;-47
2022/03/06 04:13:17;;;;;;;13.32;7.97;;;-1.50;99.90;;;;;;5031497;28;20037;-46
2022/03/06 04:15:45;;;;;;;12.38;7.68;;;-1.50;99.90;;;;;;5031139;28;20045;-46
2022/03/06 04:18:10;;;;;;;14.10;7.30;;;-1.70;99.90;;;;;;5031196;28;20407;-46
2022/03/06 04:20:37;;;;;;;15.18;7.75;;;-1.70;99.90;;;;;;5029608;28;20038;-45
2022/03/06 04:23:03;;;;;;;11.85;7.32;;;-1.80;99.90;;;;;;5030777;28;20407;-45
2022/03/06 04:25:28;;;;;;;16.90;8.70;;;-1.90;99.90;;;;;;5031183;28;20048;-45
2022/03/06 04:27:54;;;;;;;15.65;7.38;;;-1.90;99.90;;;;;;5031228;28;20468;-44
2022/03/06 04:30:20;;;;;;;14.40;8.38;;;-2.00;99.90;;;;;;5031277;28;20120;-46
2022/03/06 04:32:45;;;;;;;14.57;8.25;;;-2.10;99.90;;;;;;5030734;28;20046;-45
2022/03/06 04:35:11;;;;;;;13.95;7.75;;;-2.10;99.90;;;;;;5031092;28;20053;-46
2022/03/06 04:37:37;;;;;;;15.93;8.70;;;-2.10;99.90;;;;;;5031232;28;20049;-47
2022/03/06 04:40:03;;;;;;;13.27;7.70;;;-2.20;99.90;;;;;;5030935;28;20395;-45
2022/03/06 04:42:29;;;;;;;15.18;7.50;;;-2.30;99.90;;;;;;5031018;28;20076;-46
2022/03/06 04:44:55;;;;;;;17.27;7.38;;;-2.20;99.90;;;;;;5030966;28;20080;-45
2022/03/06 04:47:20;;;;;;;16.67;7.57;;;-2.20;99.90;;;;;;5030857;28;20257;-46
2022/03/06 04:49:46;;;;;;;12.20;7.20;;;-2.10;99.90;;;;;;5031074;28;20049;-49
2022/03/06 04:52:12;;;;;;;13.45;7.80;;;-2.10;99.90;;;;;;5031313;28;20088;-45
2022/03/06 04:54:37;;;;;;;17.50;7.70;;;-2.10;99.90;;;;;;5030699;28;20042;-45
2022/03/06 04:57:03;;;;;;;18.08;7.85;;;-2.10;99.90;;;;;;5030567;28;20487;-46
2022/03/06 04:59:29;;;;;;;16.15;7.82;;;-2.10;99.90;;;;;;5030455;28;20033;-45
2022/03/06 05:01:55;;;;;;;13.93;7.53;;;-1.50;99.90;;;;;;5030271;28;20474;-45
2022/03/06 05:04:21;;;;;;;15.10;7.65;;;-2.10;99.90;;;;;;5030475;28;20037;-45
2022/03/06 05:06:47;;;;;;;14.23;7.40;;;-2.00;99.90;;;;;;5030361;28;20037;-45
2022/03/06 05:09:13;;;;;;;16.45;7.63;;;-2.10;99.90;;;;;;5030548;28;20038;-46
2022/03/06 05:11:38;;;;;;;14.88;8.23;;;-2.20;99.90;;;;;;5030383;28;20033;-44
2022/03/06 05:14:04;;;;;;;14.45;7.20;;;-2.20;99.90;;;;;;5030718;28;20120;-47
2022/03/06 05:16:30;;;;;;;16.08;8.00;;;-2.30;99.90;;;;;;5030323;28;20065;-47
2022/03/06 05:18:56;;;;;;;17.92;8.45;;;-2.30;99.90;;;;;;5030924;28;20053;-46
2022/03/06 05:21:22;;;;;;;15.07;7.57;;;-2.30;99.90;;;;;;5033584;28;20080;-45
2022/03/06 05:23:48;;;;;;;18.60;7.45;;;-2.30;99.90;;;;;;5034273;28;20077;-45
2022/03/06 05:26:14;;;;;;;15.15;7.65;;;-2.40;99.90;;;;;;5034631;28;20538;-45
2022/03/06 05:28:41;;;;;;;13.52;6.95;;;-2.40;99.90;;;;;;5034201;28;20054;-45
2022/03/06 05:31:07;;;;;;;15.50;7.35;;;-2.40;99.90;;;;;;5034528;28;20368;-46
2022/03/06 05:33:33;;;;;;;18.33;8.27;;;-2.40;99.90;;;;;;5034204;28;20071;-47
2022/03/06 05:35:59;;;;;;;14.48;7.30;;;-2.40;99.90;;;;;;5034274;28;20487;-44
2022/03/06 05:38:24;;;;;;;14.68;7.65;;;-2.30;99.90;;;;;;5034192;28;20056;-47
2022/03/06 05:40:50;;;;;;;15.07;7.32;;;-2.60;99.90;;;;;;5033871;28;20053;-46
2022/03/06 05:43:16;;;;;;;16.13;7.07;;;-2.60;99.90;;;;;;5034154;28;20083;-45
2022/03/06 05:45:42;;;;;;;15.32;7.07;;;-2.60;99.90;;;;;;5033871;28;20053;-45
2022/03/06 05:48:07;;;;;;;13.40;7.03;;;-2.80;99.90;;;;;;5034263;28;20386;-45
2022/03/06 05:50:34;;;;;;;15.07;7.60;;;-2.80;99.90;;;;;;5033957;28;20041;-46
2022/03/06 05:52:59;;;;;;;14.15;7.10;;;-2.80;99.90;;;;;;5034022;28;20164;-45
2022/03/06 05:55:25;;;;;;;14.63;6.95;;;-2.70;99.90;;;;;;5033930;28;20492;-48
2022/03/06 05:57:51;;;;;;;18.25;7.45;;;-2.70;99.90;;;;;;5032277;28;20049;-47
2022/03/06 06:00:17;;;;;;;12.57;7.22;;;-2.60;99.90;;;;;;5032279;28;20123;-45
2022/03/06 06:02:44;;;;;;;18.38;7.40;;;-2.50;99.90;;;;;;5033789;28;20041;-45
2022/03/06 06:05:10;;;;;;;12.93;6.47;;;-2.60;99.90;;;;;;5034092;28;20049;-44
2022/03/06 06:07:36;;;;;;;17.60;8.05;;;-2.60;99.90;;;;;;5033808;28;20502;-47
2022/03/06 06:10:05;;;;;;;14.45;7.18;;;-2.50;99.90;;;;;;5033408;28;20041;-46
2022/03/06 06:12:31;;;;;;;13.30;7.30;;;-2.50;99.90;;;;;;5033635;28;20037;-45
2022/03/06 06:14:56;;;;;;;13.25;6.95;;;-2.30;99.90;;;;;;5033460;28;20052;-47
2022/03/06 06:17:22;;;;;;;16.20;7.88;;;-2.40;99.90;;;;;;5033253;28;20562;-46
2022/03/06 06:19:48;;;;;;;17.77;8.20;;;-2.40;99.90;;;;;;5033104;28;20502;-46
2022/03/06 06:22:14;;;;;;;15.05;7.22;;;-2.40;99.90;;;;;;5032272;28;20084;-48
2022/03/06 06:24:39;;;;;;;19.05;8.40;;;-2.40;99.90;;;;;;5033273;28;20426;-45
2022/03/06 06:27:05;;;;;;;15.95;8.75;;;-2.50;99.90;;;;;;5033695;28;20053;-45
2022/03/06 06:29:31;;;;;;;15.02;7.70;;;-2.40;99.90;;;;;;5033550;28;20042;-45
2022/03/06 06:31:57;;;;;;;14.18;7.53;;;-2.30;99.90;;;;;;5032283;28;20521;-45
2022/03/06 06:34:23;;;;;;;17.83;7.72;;;-1.10;99.90;;;;;;5033329;28;20073;-45
2022/03/06 06:36:49;;;;;;;15.23;7.25;;;-2.20;99.90;;;;;;5033040;28;20103;-47
2022/03/06 06:39:15;;;;;;;14.20;7.43;;;-2.10;99.90;;;;;;5032884;28;20513;-46
2022/03/06 06:41:42;;;;;;;17.05;7.18;;;-2.00;99.90;;;;;;5033332;28;20041;-46
2022/03/06 06:44:08;;;;;;;14.52;8.15;;;-2.00;99.90;;;;;;5033057;28;20050;-45
2022/03/06 06:46:35;;;;;;;13.77;7.40;;;-1.90;99.90;;;;;;5033205;28;20041;-45
2022/03/06 06:49:00;;;;;;;9.93;5.88;;;-1.90;99.90;;;;;;5032867;28;20069;-46
2022/03/06 06:51:30;;;;;;;12.77;6.40;;;-1.80;99.90;;;;;;5033069;28;20073;-47
2022/03/06 06:53:55;;;;;;;12.73;5.78;;;-0.90;99.90;;;;;;5032860;28;20125;-47
2022/03/06 06:56:21;;;;;;;11.32;6.55;;;-1.80;99.90;;;;;;5033037;28;20541;-46
2022/03/06 06:58:47;;;;;;;11.30;5.78;;;-1.70;99.90;;;;;;5032679;28;20049;-45
2022/03/06 07:01:15;;;;;;;9.02;5.53;;;-0.30;99.90;;;;;;5032467;28;20438;-44
2022/03/06 07:03:40;;;;;;;12.13;5.30;;;-1.50;99.90;;;;;;5032473;28;20037;-44
2022/03/06 07:06:06;;;;;;;8.48;4.90;;;-1.40;99.90;;;;;;5032254;28;20075;-47
2022/03/06 07:08:32;;;;;;;9.63;5.25;;;-1.20;99.90;;;;;;5032346;28;20369;-46
2022/03/06 07:10:57;;;;;;;7.25;4.53;;;-1.20;99.90;;;;;;5032234;28;20041;-46
2022/03/06 07:13:23;;;;;;;10.75;5.00;;;-1.20;99.90;;;;;;5032892;28;20049;-46
2022/03/06 07:15:49;;;;;;;7.90;4.70;;;-1.00;99.90;;;;;;5032117;28;20040;-46
2022/03/06 07:18:14;;;;;;;8.88;4.70;;;-0.90;99.90;;;;;;5032780;28;20091;-46
2022/03/06 07:20:40;;;;;;;10.38;6.50;;;-1.00;99.90;;;;;;5031763;28;20045;-47
2022/03/06 07:23:06;;;;;;;20.40;5.90;;;-0.70;99.90;;;;;;5032266;28;20046;-46
2022/03/06 07:25:31;;;;;;;7.88;3.92;;;-0.70;99.90;;;;;;5032280;28;20041;-48
2022/03/06 07:27:57;;;;;;;6.30;3.20;;;-0.80;99.90;;;;;;5032015;28;20044;-47
2022/03/06 07:30:23;;;;;;;8.93;3.65;;;-0.40;99.90;;;;;;5032328;28;20085;-48
2022/03/06 07:32:51;;;;;;;5.28;3.30;;;-0.30;99.90;;;;;;5032084;28;20467;-47
2022/03/06 07:35:18;;;;;;;6.38;3.55;;;-0.30;99.90;;;;;;5032465;28;20051;-48
2022/03/06 07:37:44;;;;;;;6.63;3.72;;;-0.10;99.90;;;;;;5032343;28;20069;-45
2022/03/06 07:40:12;;;;;;;7.15;3.10;;;-0.10;99.90;;;;;;5031559;28;20120;-52
2022/03/06 07:42:38;;;;;;;5.75;2.95;;;0.10;99.90;;;;;;5032035;28;20048;-45
2022/03/06 07:45:04;;;;;;;4.40;3.15;;;0.30;99.90;;;;;;5031768;28;20045;-49
2022/03/06 07:47:30;;;;;;;3.33;2.35;;;0.30;99.90;;;;;;5031954;28;20033;-45
2022/03/06 07:49:56;;;;;;;5.50;2.33;;;0.80;99.90;;;;;;5031990;28;20068;-46
2022/03/06 07:52:22;;;;;;;6.07;2.10;;;1.10;99.90;;;;;;5031903;28;20042;-49
2022/03/06 07:54:47;;;;;;;4.07;2.10;;;1.20;99.90;;;;;;5031617;28;20045;-47
2022/03/06 07:57:13;;;;;;;5.07;2.25;;;1.30;99.90;;;;;;5031475;28;20045;-48
2022/03/06 07:59:39;;;;;;;4.50;1.73;;;1.40;99.90;;;;;;5032032;28;20369;-49
2022/03/06 08:02:05;;;;;;;6.45;2.83;;;1.40;99.90;;;;;;5032081;28;20383;-48
2022/03/06 08:04:30;;;;;;;4.55;1.70;;;1.40;99.90;;;;;;5031818;28;20049;-46
2022/03/06 08:06:56;;;;;;;4.78;1.77;;;1.50;99.90;;;;;;5031264;28;20466;-47
2022/03/06 08:09:24;;;;;;;3.90;2.03;;;1.60;99.90;;;;;;5031512;28;20045;-47
2022/03/06 08:11:53;;;;;;;5.78;3.08;;;2.00;99.90;;;;;;5031178;28;20045;-46
2022/03/06 08:14:19;;;;;;;5.63;2.25;;;2.40;99.90;;;;;;5031207;28;20386;-48
2022/03/06 08:16:45;;;;;;;4.95;1.83;;;3.00;99.90;;;;;;5030820;28;20063;-46
2022/03/06 08:19:11;;;;;;;4.40;1.85;;;3.60;99.90;;;;;;5031376;28;20053;-47
2022/03/06 08:21:39;;;;;;;6.35;1.88;;;4.10;99.90;;;;;;5031234;28;20041;-53
2022/03/06 08:24:05;;;;;;;3.00;1.40;;;3.90;99.90;;;;;;5031137;28;20057;-46
2022/03/06 08:26:31;;;;;;;6.15;2.88;;;3.90;99.90;;;;;;5031255;28;20120;-50
2022/03/06 08:28:56;;;;;;;5.32;1.38;;;4.40;99.90;;;;;;5031090;28;20096;-47
2022/03/06 08:31:22;;;;;;;3.35;2.03;;;4.70;99.90;;;;;;5031179;28;20038;-48
2022/03/06 08:33:48;;;;;;;3.72;1.42;;;5.10;99.90;;;;;;5031096;28;20045;-48
2022/03/06 08:36:14;;;;;;;2.97;1.02;;;6.10;99.90;;;;;;5031204;28;20120;-47
2022/03/06 08:38:40;;;;;;;5.90;1.45;;;5.50;99.90;;;;;;5031461;28;20121;-46
2022/03/06 08:41:05;;;;;;;2.80;1.05;;;6.10;99.90;;;;;;5031026;28;20084;-48
2022/03/06 08:43:31;;;;;;;3.60;1.13;;;6.40;99.90;;;;;;5030597;28;20520;-46
2022/03/06 08:45:57;;;;;;;3.15;1.10;;;7.40;99.90;;;;;;5030625;28;20041;-49
2022/03/06 08:48:22;;;;;;;2.63;0.95;;;8.80;99.90;;;;;;5030697;28;20045;-46
2022/03/06 08:50:51;;;;;;;3.10;1.10;;;9.80;97.10;;;;;;5030995;28;20472;-48
2022/03/06 08:53:18;;;;;;;2.95;1.00;;;9.40;94.00;;;;;;5029678;28;20041;-46
2022/03/06 08:55:44;;;;;;;2.65;0.88;;;10.00;91.60;;;;;;5030619;28;20037;-47
2022/03/06 08:58:10;;;;;;;2.83;0.90;;;10.20;90.90;;;;;;5030589;28;20052;-49
2022/03/06 09:00:36;;;;;;;3.05;1.13;;;10.40;88.20;;;;;;5030609;28;20049;-47
2022/03/06 09:03:01;;;;;;;2.30;0.93;;;10.00;87.40;;;;;;5030661;28;20045;-50
2022/03/06 09:05:27;;;;;;;2.85;0.90;;;10.10;87.20;;;;;;5030647;28;20037;-48
2022/03/06 09:07:53;;;;;;;3.13;1.00;;;9.00;89.20;;;;;;5030869;28;20041;-48
2022/03/06 09:10:19;;;;;;;3.92;1.00;;;8.50;86.80;;;;;;5030298;28;20040;-50
2022/03/06 09:12:45;;;;;;;3.58;0.95;;;7.70;90.00;;;;;;5030576;28;20041;-47
2022/03/06 09:15:11;;;;;;;2.30;0.60;;;8.90;90.50;;;;;;5030543;28;20433;-51
2022/03/06 09:17:37;;;;;;;3.58;1.17;;;8.80;89.00;;;;;;5028951;28;20057;-48
2022/03/06 09:20:04;;;;;;;3.95;1.25;;;9.80;88.70;;;;;;5030741;28;20047;-49
2022/03/06 09:22:30;;;;;;;3.30;1.13;;;10.80;84.90;;;;;;5030711;28;20045;-48
2022/03/06 09:24:56;;;;;;;2.25;1.08;;;11.50;83.00;;;;;;5030451;28;20052;-46
2022/03/06 09:27:21;;;;;;;2.58;1.17;;;11.80;79.00;;;;;;5030378;28;20077;-47
2022/03/06 09:29:47;;;;;;;4.15;1.23;;;10.80;75.10;;;;;;5030039;28;20046;-46
2022/03/06 09:32:13;;;;;;;5.28;1.23;;;11.00;78.40;;;;;;5030521;28;20505;-51
2022/03/06 09:34:39;;;;;;;3.17;1.35;;;11.40;81.50;;;;;;5030417;28;20049;-48
2022/03/06 09:37:05;;;;;;;5.07;1.25;;;11.60;79.00;;;;;;5029988;28;20470;-47
2022/03/06 09:39:31;;;;;;;3.45;0.82;;;11.30;76.30;;;;;;5030087;28;20041;-48
2022/03/06 09:41:57;;;;;;;2.35;0.93;;;11.20;80.10;;;;;;5030497;28;20746;-48
2022/03/06 09:44:27;;;;;;;2.55;1.05;;;11.20;81.20;;;;;;5029967;28;20048;-49
2022/03/06 09:46:57;;;;;;;4.65;0.75;;;11.20;78.20;;;;;;5029200;28;20049;-50
2022/03/06 09:49:24;;;;;;;3.63;0.98;;;11.30;81.70;;;;;;5030218;28;20073;-48
2022/03/06 09:51:50;;;;;;;3.80;0.93;;;11.80;80.20;;;;;;5030497;28;20045;-50
2022/03/06 09:54:16;;;;;;;2.97;0.90;;;12.30;77.50;;;;;;5030483;28;20037;-48
2022/03/06 09:56:43;;;;;;;4.35;1.27;;;12.50;75.00;;;;;;5030022;28;20048;-50
2022/03/06 09:59:09;;;;;;;2.70;1.20;;;12.10;72.90;;;;;;5030168;28;20053;-49
2022/03/06 10:01:35;;;;;;;2.22;0.80;;;11.40;73.40;;;;;;5029584;28;20087;-48
2022/03/06 10:04:29;;;;;;;3.97;1.30;;;11.60;74.00;;;;;;5029504;28;20557;-44
2022/03/06 10:07:10;;;;;;;2.58;1.27;;;12.30;69.70;;;;;;5026171;28;20069;-49
2022/03/06 10:09:43;;;;;;;2.35;1.08;;;10.90;66.60;;;;;;5031415;28;20059;-48
2022/03/06 10:12:30;;;;;;;2.47;0.90;;;10.30;72.30;;;;;;5033543;28;20120;-45
2022/03/06 10:15:17;;;;;;;2.63;0.80;;;9.90;70.10;;;;;;5033570;28;20045;-44
2022/03/06 10:17:43;;;;;;;3.88;0.70;;;9.10;74.70;;;;;;5033187;28;20140;-47
2022/03/06 10:20:10;;;;;;;2.95;0.95;;;9.40;77.70;;;;;;5033742;28;20187;-48
2022/03/06 10:22:41;;;;;;;4.22;0.90;;;9.90;77.60;;;;;;5031651;28;20049;-46
2022/03/06 10:25:08;;;;;;;2.17;0.77;;;10.20;70.70;;;;;;5032109;28;20041;-47
2022/03/06 10:27:57;;;;;;;3.38;1.00;;;11.10;74.60;;;;;;5032915;28;20033;-47
2022/03/06 10:30:35;;;;;;;3.15;1.05;;;11.80;69.70;;;;;;5032699;28;20042;-48
2022/03/06 10:33:04;;;;;;;5.50;1.13;;;11.90;68.80;;;;;;5033031;28;20094;-47
2022/03/06 10:35:34;;;;;;;2.90;0.98;;;12.10;70.80;;;;;;5032460;28;20113;-47
2022/03/06 10:38:01;;;;;;;2.70;1.15;;;11.70;69.90;;;;;;5031555;28;20041;-47
2022/03/06 10:40:38;;;;;;;4.82;1.20;;;11.80;69.60;;;;;;5029738;28;20084;-47
2022/03/06 10:43:26;;;;;;;4.40;1.23;;;12.40;69.80;;;;;;5031470;28;20053;-46
2022/03/06 10:46:04;;;;;;;3.00;0.90;;;12.40;67.30;;;;;;5031575;28;20044;-46
2022/03/06 10:48:30;;;;;;;3.13;0.90;;;12.60;66.90;;;;;;5031273;28;20041;-46
2022/03/06 10:51:04;;;;;;;5.13;1.30;;;12.60;68.60;;;;;;5031499;28;20038;-47
2022/03/06 10:53:30;;;;;;;3.35;0.70;;;12.30;67.30;;;;;;5031096;28;20046;-46
2022/03/06 10:56:04;;;;;;;3.65;1.05;;;11.90;68.40;;;;;;5030961;28;20495;-47
2022/03/06 10:58:31;;;;;;;4.72;0.90;;;11.50;67.80;;;;;;5031314;28;20041;-47
2022/03/06 11:00:57;;;;;;;2.08;1.02;;;11.40;68.10;;;;;;5031569;28;20045;-47
2022/03/06 11:03:24;;;;;;;5.25;1.52;;;11.00;67.30;;;;;;5030884;28;20316;-46
2022/03/06 11:05:51;;;;;;;5.18;0.88;;;11.20;68.60;;;;;;5031147;28;20037;-45
2022/03/06 11:08:18;;;;;;;3.55;1.05;;;10.30;68.20;;;;;;5030642;28;20102;-47
2022/03/06 11:10:44;;;;;;;2.90;0.90;;;10.00;67.40;;;;;;5030606;28;20038;-46
2022/03/06 11:13:13;;;;;;;3.80;1.17;;;9.50;67.70;;;;;;5030833;28;20475;-48
2022/03/06 11:15:40;;;;;;;4.07;1.42;;;8.70;68.70;;;;;;5031184;28;20342;-47
2022/03/06 11:18:07;;;;;;;3.72;1.13;;;8.10;70.50;;;;;;5030690;28;20069;-50
2022/03/06 11:20:36;;;;;;;3.13;1.05;;;8.60;72.90;;;;;;5031298;28;20098;-49
2022/03/06 11:23:16;;;;;;;3.13;1.42;;;7.20;73.90;;;;;;5031385;28;20399;-48
2022/03/06 11:26:04;;;;;;;2.97;1.42;;;6.70;75.80;;;;;;5030857;28;20050;-47
2022/03/06 11:28:48;;;;;;;4.78;1.23;;;6.60;76.00;;;;;;5029103;28;20045;-47
2022/03/06 11:31:14;;;;;;;4.72;1.83;;;8.20;77.90;;;;;;5028784;28;20180;-47
2022/03/06 11:33:52;;;;;;;2.80;1.02;;;7.30;78.30;;;;;;5030999;28;20124;-46
2022/03/06 11:36:21;;;;;;;3.22;1.20;;;5.90;77.70;;;;;;5030240;28;20045;-45
2022/03/06 11:38:49;;;;;;;3.67;1.35;;;7.10;79.70;;;;;;5030081;28;20049;-46
2022/03/06 11:41:16;;;;;;;4.25;1.40;;;6.10;79.60;;;;;;5030669;28;20077;-46
2022/03/06 11:43:47;;;;;;;3.28;1.20;;;6.00;79.40;;;;;;5029954;28;20049;-46
2022/03/06 11:46:14;;;;;;;3.72;1.27;;;5.90;78.90;;;;;;5030548;28;20049;-47
2022/03/06 11:48:40;;;;;;;3.75;1.40;;;5.80;79.60;;;;;;5030595;28;20049;-47
2022/03/06 11:51:20;;;;;;;2.63;1.17;;;5.90;80.20;;;;;;5028982;28;20080;-49
2022/03/06 11:54:09;;;;;;;4.13;1.48;;;5.90;80.10;;;;;;5029670;28;20848;-45
2022/03/06 11:56:35;;;;;;;3.63;1.42;;;5.80;80.50;;;;;;5029319;28;20487;-45
2022/03/06 11:59:02;;;;;;;4.00;1.40;;;6.90;81.20;;;;;;5029942;28;20045;-49
2022/03/06 12:01:33;;;;;;;5.22;1.50;;;5.50;79.90;;;;;;5030222;28;20034;-52
2022/03/06 12:04:05;;;;;;;3.63;1.77;;;5.70;80.60;;;;;;5029594;28;20052;-51
2022/03/06 12:06:31;;;;;;;4.53;1.38;;;5.90;80.60;;;;;;5030756;28;20069;-49
2022/03/06 12:08:56;;;;;;;2.67;1.40;;;7.20;81.90;;;;;;5030710;28;20108;-48
2022/03/06 12:11:23;;;;;;;5.28;2.10;;;6.00;80.10;;;;;;5030737;28;20049;-54
2022/03/06 12:13:50;;;;;;;3.75;1.58;;;6.10;81.00;;;;;;5030117;28;20069;-52
2022/03/06 12:16:17;;;;;;;5.50;1.67;;;6.20;80.20;;;;;;5030928;28;20046;-53
2022/03/06 12:19:02;;;;;;;6.78;2.00;;;6.40;80.60;;;;;;5031383;28;20060;-53
2022/03/06 12:21:37;;;;;;;3.58;1.52;;;6.30;78.70;;;;;;5031699;28;20056;-50
2022/03/06 12:24:10;;;;;;;4.47;1.30;;;6.80;81.20;;;;;;5030993;28;20065;-53
2022/03/06 12:26:45;;;;;;;4.32;1.67;;;6.60;80.60;;;;;;5030477;28;20079;-53
2022/03/06 12:29:54;;;;;;;4.80;1.60;;;6.70;81.60;;;;;;5030577;28;20041;-46
2022/03/06 12:32:26;;;;;;;4.90;1.60;;;6.90;81.80;;;;;;5015577;28;20057;-52
2022/03/06 12:35:06;;;;;;;6.65;1.30;;;7.90;81.90;;;;;;5030073;28;20064;-50
2022/03/06 12:37:43;;;;;;;5.13;1.60;;;7.30;81.70;;;;;;5030517;28;20083;-49
2022/03/06 12:40:16;;;;;;;7.32;1.90;;;7.40;81.40;;;;;;5030829;28;20048;-49
2022/03/06 12:42:44;;;;;;;3.90;1.42;;;7.50;81.30;;;;;;5030143;28;20044;-53